Grantley Adams, Barbados

1:09 AM AST on September 29, 2016 (GMT -0400)
Sun City Terrace | | Change Station

Elev 131 ft 13.10 °N, 59.45 °W | Updated 9 minutes ago

Overcast
Overcast
84.2 °F
Feels Like 93 °F
N
0.0
Wind Variable Wind from SW
Gusts 0.0 mph

Today
High -- | Low -- °F
--% Chance of Precip.
Yesterday
High -- | Low -- °F
Precip. -- in
Pressure 29.89 in
Visibility 6.2 miles
Clouds Few 1200 ft
Scattered Clouds 1600 ft
Overcast 8000 ft
Heat Index 93 °F
Dew Point 76 °F
Humidity 77%
Rainfall in
Snow Depth Not available.
5:47 AM 5:48 PM
Waning Crescent, 3% visible
METAR TBPB 290500Z 09016KT 9999 FEW012CB SCT016 OVC080 28/25 Q1012 NOSIG
Pressure 29.89 in
Visibility 6.2 miles
Clouds Few 1200 ft
Scattered Clouds 1600 ft
Overcast 8000 ft
Heat Index 93 °F
Dew Point 76 °F
Humidity 77%
Rainfall in
Snow Depth Not available.
5:47 AM 5:48 PM
Waning Crescent, 3% visible
METAR TBPB 290500Z 09016KT 9999 FEW012CB SCT016 OVC080 28/25 Q1012 NOSIG

10-Day Weather Forecast

No radar image for this location.
×

Almanac

Astronomy

Sep. 29, 2016 Rise Set
Actual Time
Civil Twilight
Nautical Twilight
Astronomical Twilight
Moon
Length of Visible Light
Length of Day
Tomorrow will be .
, % of the Moon is Illuminated

Today's Extremes

Country Highs Country Lows

Community

WunderPhotos

Upload Photos

1,942,444 photos uploaded!

WunderBlog® & News

Nearby

Air Quality

  Air Quality AQ Index Pollutant
Not available.

Snow Depth

Station Depth Elevation

Earthquake Activity

City Distance Mag. Time & Date
Minimum magnitude displayed is 2.5.

Coastal Water Temperatures

Place Temperature

Stations

Nearby Weather Stations

Station Location Temp. Windchill Dew Point Humidity Wind Precip. Elev Updated Type